sensor_id;sensor_type;location;lat;lon;timestamp;pressure;altitude;pressure_sealevel;temperature;humidity
63927;BME280;50103;47.960;21.712;2023-02-12T06:03:20;102004.45;;;0.10;91.69
63927;BME280;50103;47.960;21.712;2023-02-12T06:05:49;102006.52;;;0.13;91.69
63927;BME280;50103;47.960;21.712;2023-02-12T06:08:15;102009.11;;;0.16;91.86
63927;BME280;50103;47.960;21.712;2023-02-12T06:10:41;102008.08;;;0.15;91.96
63927;BME280;50103;47.960;21.712;2023-02-12T06:13:07;102008.79;;;0.14;91.89
63927;BME280;50103;47.960;21.712;2023-02-12T06:15:35;102008.96;;;0.12;91.78
63927;BME280;50103;47.960;21.712;2023-02-12T06:18:01;102010.20;;;0.08;92.09
63927;BME280;50103;47.960;21.712;2023-02-12T06:20:26;102011.27;;;0.06;92.10
63927;BME280;50103;47.960;21.712;2023-02-12T06:22:52;102023.27;;;0.07;92.03
63927;BME280;50103;47.960;21.712;2023-02-12T06:25:21;102026.40;;;0.07;92.27
63927;BME280;50103;47.960;21.712;2023-02-12T06:27:47;102018.06;;;0.05;92.16
63927;BME280;50103;47.960;21.712;2023-02-12T06:30:13;102021.20;;;0.03;92.44
63927;BME280;50103;47.960;21.712;2023-02-12T06:32:38;102026.94;;;0.03;92.27
63927;BME280;50103;47.960;21.712;2023-02-12T06:35:04;102027.98;;;0.04;92.58
63927;BME280;50103;47.960;21.712;2023-02-12T06:37:30;102030.23;;;0.06;92.47
63927;BME280;50103;47.960;21.712;2023-02-12T06:39:57;102045.02;;;0.09;92.60
63927;BME280;50103;47.960;21.712;2023-02-12T06:42:23;102049.73;;;0.10;92.68
63927;BME280;50103;47.960;21.712;2023-02-12T06:44:48;102047.64;;;0.09;92.76
63927;BME280;50103;47.960;21.712;2023-02-12T06:47:14;102044.32;;;0.10;92.78
63927;BME280;50103;47.960;21.712;2023-02-12T06:49:40;102039.96;;;0.12;92.98
63927;BME280;50103;47.960;21.712;2023-02-12T06:52:06;102040.49;;;0.11;93.03
63927;BME280;50103;47.960;21.712;2023-02-12T06:54:32;102045.89;;;0.11;93.02
63927;BME280;50103;47.960;21.712;2023-02-12T06:56:57;102055.65;;;0.10;93.09
63927;BME280;50103;47.960;21.712;2023-02-12T06:59:23;102071.15;;;0.09;93.13
63927;BME280;50103;47.960;21.712;2023-02-12T07:01:49;102081.25;;;0.10;93.20
63927;BME280;50103;47.960;21.712;2023-02-12T07:04:15;102087.86;;;0.13;93.36
63927;BME280;50103;47.960;21.712;2023-02-12T07:06:41;102082.63;;;0.13;93.12
63927;BME280;50103;47.960;21.712;2023-02-12T07:09:07;102083.15;;;0.15;93.16
63927;BME280;50103;47.960;21.712;2023-02-12T07:11:34;102094.25;;;0.18;93.14
63927;BME280;50103;47.960;21.712;2023-02-12T07:14:00;102101.73;;;0.20;93.28
63927;BME280;50103;47.960;21.712;2023-02-12T07:16:26;102098.41;;;0.23;93.54
63927;BME280;50103;47.960;21.712;2023-02-12T07:18:52;102102.93;;;0.25;93.15
63927;BME280;50103;47.960;21.712;2023-02-12T07:21:19;102102.05;;;0.28;93.26
63927;BME280;50103;47.960;21.712;2023-02-12T07:23:47;102102.90;;;0.32;93.25
63927;BME280;50103;47.960;21.712;2023-02-12T07:26:14;102107.39;;;0.36;93.06
63927;BME280;50103;47.960;21.712;2023-02-12T07:28:41;102111.02;;;0.41;93.13
63927;BME280;50103;47.960;21.712;2023-02-12T07:31:13;102112.76;;;0.43;93.18
63927;BME280;50103;47.960;21.712;2023-02-12T07:33:40;102121.11;;;0.46;93.12
63927;BME280;50103;47.960;21.712;2023-02-12T07:36:08;102118.95;;;0.51;93.07
63927;BME280;50103;47.960;21.712;2023-02-12T07:38:35;102123.13;;;0.55;92.93
63927;BME280;50103;47.960;21.712;2023-02-12T07:41:25;102120.50;;;0.58;92.85
63927;BME280;50103;47.960;21.712;2023-02-12T07:44:05;102125.02;;;0.62;92.77
63927;BME280;50103;47.960;21.712;2023-02-12T07:46:36;102130.52;;;0.66;92.88
63927;BME280;50103;47.960;21.712;2023-02-12T07:49:05;102125.10;;;0.73;92.96
63927;BME280;50103;47.960;21.712;2023-02-12T07:51:33;102127.17;;;0.75;92.75
63927;BME280;50103;47.960;21.712;2023-02-12T07:54:00;102124.20;;;0.75;92.56
63927;BME280;50103;47.960;21.712;2023-02-12T07:56:28;102129.95;;;0.78;92.37
63927;BME280;50103;47.960;21.712;2023-02-12T07:58:57;102127.50;;;0.80;92.38
63927;BME280;50103;47.960;21.712;2023-02-12T08:01:27;102130.27;;;0.81;92.38
63927;BME280;50103;47.960;21.712;2023-02-12T08:03:57;102129.69;;;0.86;92.43
63927;BME280;50103;47.960;21.712;2023-02-12T08:06:26;102130.88;;;0.93;92.39
63927;BME280;50103;47.960;21.712;2023-02-12T08:08:59;102121.20;;;1.00;92.18
63927;BME280;50103;47.960;21.712;2023-02-12T08:11:27;102125.17;;;1.06;92.20
63927;BME280;50103;47.960;21.712;2023-02-12T08:13:53;102127.58;;;1.12;91.97
63927;BME280;50103;47.960;21.712;2023-02-12T08:16:23;102135.36;;;1.17;92.07
63927;BME280;50103;47.960;21.712;2023-02-12T08:18:50;102139.17;;;1.21;91.76
63927;BME280;50103;47.960;21.712;2023-02-12T08:21:19;102142.11;;;1.24;91.60
63927;BME280;50103;47.960;21.712;2023-02-12T08:23:45;102142.98;;;1.27;91.43
63927;BME280;50103;47.960;21.712;2023-02-12T08:26:21;102144.83;;;1.30;91.48
63927;BME280;50103;47.960;21.712;2023-02-12T08:28:53;102143.92;;;1.34;91.42
63927;BME280;50103;47.960;21.712;2023-02-12T08:31:24;102146.00;;;1.37;91.27
63927;BME280;50103;47.960;21.712;2023-02-12T08:33:52;102151.02;;;1.40;91.12
63927;BME280;50103;47.960;21.712;2023-02-12T08:36:29;102150.14;;;1.44;91.02
63927;BME280;50103;47.960;21.712;2023-02-12T08:39:00;102153.02;;;1.49;90.83
63927;BME280;50103;47.960;21.712;2023-02-12T08:41:27;102151.07;;;1.54;90.45
63927;BME280;50103;47.960;21.712;2023-02-12T08:43:58;102149.66;;;1.56;90.38
63927;BME280;50103;47.960;21.712;2023-02-12T08:46:28;102152.94;;;1.60;90.21
63927;BME280;50103;47.960;21.712;2023-02-12T08:49:00;102156.41;;;1.62;89.84
63927;BME280;50103;47.960;21.712;2023-02-12T08:51:29;102154.06;;;1.67;90.13
63927;BME280;50103;47.960;21.712;2023-02-12T08:53:59;102158.55;;;1.72;90.16
63927;BME280;50103;47.960;21.712;2023-02-12T08:56:25;102167.39;;;1.79;90.08
63927;BME280;50103;47.960;21.712;2023-02-12T08:58:52;102173.77;;;1.86;89.47
63927;BME280;50103;47.960;21.712;2023-02-12T09:01:20;102174.75;;;1.93;89.59
63927;BME280;50103;47.960;21.712;2023-02-12T09:03:47;102176.73;;;2.00;89.33
63927;BME280;50103;47.960;21.712;2023-02-12T09:06:14;102177.73;;;2.06;88.98
63927;BME280;50103;47.960;21.712;2023-02-12T09:08:40;102178.17;;;2.12;89.17
63927;BME280;50103;47.960;21.712;2023-02-12T09:11:08;102178.78;;;2.20;88.98
63927;BME280;50103;47.960;21.712;2023-02-12T09:13:35;102186.23;;;2.27;88.66
63927;BME280;50103;47.960;21.712;2023-02-12T09:16:03;102187.34;;;2.33;88.88
63927;BME280;50103;47.960;21.712;2023-02-12T09:18:29;102191.09;;;2.41;88.70
63927;BME280;50103;47.960;21.712;2023-02-12T09:21:03;102192.05;;;2.48;88.58
63927;BME280;50103;47.960;21.712;2023-02-12T09:23:29;102197.90;;;2.55;88.53
63927;BME280;50103;47.960;21.712;2023-02-12T09:25:55;102202.89;;;2.60;88.41
63927;BME280;50103;47.960;21.712;2023-02-12T09:28:22;102209.27;;;2.67;88.58
63927;BME280;50103;47.960;21.712;2023-02-12T09:30:48;102204.46;;;2.74;88.74
63927;BME280;50103;47.960;21.712;2023-02-12T09:33:14;102206.61;;;2.81;88.55
63927;BME280;50103;47.960;21.712;2023-02-12T09:35:40;102212.09;;;2.90;88.11
63927;BME280;50103;47.960;21.712;2023-02-12T09:38:06;102213.52;;;2.99;87.89
63927;BME280;50103;47.960;21.712;2023-02-12T09:43:41;102215.64;;;3.20;87.15
63927;BME280;50103;47.960;21.712;2023-02-12T09:46:14;102211.99;;;3.29;86.93
63927;BME280;50103;47.960;21.712;2023-02-12T09:51:21;102224.70;;;3.43;86.72
63927;BME280;50103;47.960;21.712;2023-02-12T09:53:48;102226.13;;;3.53;86.28
63927;BME280;50103;47.960;21.712;2023-02-12T09:56:19;102222.48;;;3.60;85.98
63927;BME280;50103;47.960;21.712;2023-02-12T09:58:53;102223.27;;;3.66;85.99
63927;BME280;50103;47.960;21.712;2023-02-12T10:01:21;102232.08;;;3.73;85.91
63927;BME280;50103;47.960;21.712;2023-02-12T10:03:50;102230.53;;;3.81;85.18
63927;BME280;50103;47.960;21.712;2023-02-12T10:06:23;102232.33;;;3.88;84.12
63927;BME280;50103;47.960;21.712;2023-02-12T10:08:57;102233.24;;;3.95;83.50
63927;BME280;50103;47.960;21.712;2023-02-12T10:11:48;102238.20;;;4.02;83.20
63927;BME280;50103;47.960;21.712;2023-02-12T10:17:41;102243.08;;;4.22;83.02
63927;BME280;50103;47.960;21.712;2023-02-12T10:20:33;102238.33;;;4.31;82.26
63927;BME280;50103;47.960;21.712;2023-02-12T10:23:24;102235.00;;;4.39;82.05
63927;BME280;50103;47.960;21.712;2023-02-12T10:25:58;102235.10;;;4.51;82.12
63927;BME280;50103;47.960;21.712;2023-02-12T10:28:32;102233.46;;;4.62;81.67
63927;BME280;50103;47.960;21.712;2023-02-12T10:34:39;102244.31;;;4.87;80.47
63927;BME280;50103;47.960;21.712;2023-02-12T10:42:55;102240.83;;;5.59;78.25
63927;BME280;50103;47.960;21.712;2023-02-12T10:45:42;102242.73;;;6.01;78.67
63927;BME280;50103;47.960;21.712;2023-02-12T10:48:20;102243.97;;;6.51;75.18
63927;BME280;50103;47.960;21.712;2023-02-12T10:54:33;102248.38;;;7.19;69.53
63927;BME280;50103;47.960;21.712;2023-02-12T10:57:10;102251.50;;;7.37;68.90
63927;BME280;50103;47.960;21.712;2023-02-12T10:59:39;102255.50;;;7.44;65.57
63927;BME280;50103;47.960;21.712;2023-02-12T11:04:51;102251.98;;;7.38;65.26
63927;BME280;50103;47.960;21.712;2023-02-12T11:07:17;102253.02;;;7.39;66.52
63927;BME280;50103;47.960;21.712;2023-02-12T11:09:47;102253.32;;;7.41;64.85
63927;BME280;50103;47.960;21.712;2023-02-12T11:12:41;102251.14;;;7.43;63.63
63927;BME280;50103;47.960;21.712;2023-02-12T11:15:19;102248.73;;;7.52;63.32
63927;BME280;50103;47.960;21.712;2023-02-12T11:18:06;102242.98;;;7.60;59.10
63927;BME280;50103;47.960;21.712;2023-02-12T11:20:49;102246.41;;;7.68;59.66
63927;BME280;50103;47.960;21.712;2023-02-12T11:23:50;102246.83;;;7.82;58.51
63927;BME280;50103;47.960;21.712;2023-02-12T11:26:26;102242.65;;;7.90;58.18
63927;BME280;50103;47.960;21.712;2023-02-12T11:29:02;102252.41;;;7.83;58.46
63927;BME280;50103;47.960;21.712;2023-02-12T11:31:42;102256.66;;;7.57;58.19
63927;BME280;50103;47.960;21.712;2023-02-12T11:34:23;102262.48;;;7.41;57.89
63927;BME280;50103;47.960;21.712;2023-02-12T11:36:52;102262.97;;;7.48;54.82
63927;BME280;50103;47.960;21.712;2023-02-12T11:39:25;102256.97;;;7.63;54.36
63927;BME280;50103;47.960;21.712;2023-02-12T11:42:04;102263.67;;;7.84;55.47
63927;BME280;50103;47.960;21.712;2023-02-12T11:44:42;102256.75;;;8.15;54.80
63927;BME280;50103;47.960;21.712;2023-02-12T11:47:16;102254.12;;;8.49;55.63
63927;BME280;50103;47.960;21.712;2023-02-12T11:53:07;102251.83;;;9.08;51.35
63927;BME280;50103;47.960;21.712;2023-02-12T11:55:37;102250.97;;;9.21;51.02
63927;BME280;50103;47.960;21.712;2023-02-12T11:58:15;102257.45;;;9.40;50.58
63927;BME280;50103;47.960;21.712;2023-02-12T12:00:49;102263.97;;;9.66;49.19
63927;BME280;50103;47.960;21.712;2023-02-12T12:03:40;102272.44;;;9.49;49.32
63927;BME280;50103;47.960;21.712;2023-02-12T12:14:55;102255.05;;;9.63;47.79
63927;BME280;50103;47.960;21.712;2023-02-12T12:18:03;102253.23;;;9.93;48.19
63927;BME280;50103;47.960;21.712;2023-02-12T12:20:55;102251.41;;;10.23;46.80
63927;BME280;50103;47.960;21.712;2023-02-12T12:23:36;102250.70;;;10.43;46.43
63927;BME280;50103;47.960;21.712;2023-02-12T12:26:16;102252.45;;;10.55;45.18
63927;BME280;50103;47.960;21.712;2023-02-12T12:28:54;102252.08;;;10.59;45.10
63927;BME280;50103;47.960;21.712;2023-02-12T12:31:54;102253.94;;;10.76;44.51
63927;BME280;50103;47.960;21.712;2023-02-12T12:34:24;102251.77;;;10.88;44.64
63927;BME280;50103;47.960;21.712;2023-02-12T12:39:34;102257.48;;;11.02;42.72
63927;BME280;50103;47.960;21.712;2023-02-12T12:53:03;102261.45;;;10.86;41.22
63927;BME280;50103;47.960;21.712;2023-02-12T13:08:10;102261.67;;;11.22;40.79
63927;BME280;50103;47.960;21.712;2023-02-12T13:13:44;102276.98;;;11.35;41.58
63927;BME280;50103;47.960;21.712;2023-02-12T13:16:48;102277.95;;;11.58;41.41
63927;BME280;50103;47.960;21.712;2023-02-12T13:22:26;102269.48;;;12.00;40.13
63927;BME280;50103;47.960;21.712;2023-02-12T13:25:17;102264.98;;;12.04;40.92
63927;BME280;50103;47.960;21.712;2023-02-12T13:27:47;102262.23;;;12.17;39.60
63927;BME280;50103;47.960;21.712;2023-02-12T13:30:17;102262.75;;;12.17;39.79
63927;BME280;50103;47.960;21.712;2023-02-12T13:32:59;102268.86;;;12.32;39.40
63927;BME280;50103;47.960;21.712;2023-02-12T13:35:28;102274.56;;;12.45;39.01
63927;BME280;50103;47.960;21.712;2023-02-12T13:37:56;102274.09;;;12.51;37.83
63927;BME280;50103;47.960;21.712;2023-02-12T13:40:24;102276.48;;;12.43;37.84
63927;BME280;50103;47.960;21.712;2023-02-12T13:43:26;102275.48;;;12.48;37.83
63927;BME280;50103;47.960;21.712;2023-02-12T13:46:08;102268.14;;;12.69;37.96
63927;BME280;50103;47.960;21.712;2023-02-12T13:48:50;102260.36;;;12.81;37.17
63927;BME280;50103;47.960;21.712;2023-02-12T13:52:09;102262.91;;;12.60;37.91
63927;BME280;50103;47.960;21.712;2023-02-12T13:54:52;102265.12;;;12.68;37.75
63927;BME280;50103;47.960;21.712;2023-02-12T13:57:20;102267.44;;;12.75;37.67
63927;BME280;50103;47.960;21.712;2023-02-12T13:59:51;102268.69;;;12.71;37.53
63927;BME280;50103;47.960;21.712;2023-02-12T14:05:14;102286.33;;;12.14;38.38
63927;BME280;50103;47.960;21.712;2023-02-12T14:07:52;102283.99;;;11.80;38.31
63927;BME280;50103;47.960;21.712;2023-02-12T14:10:37;102275.86;;;11.44;38.41
63927;BME280;50103;47.960;21.712;2023-02-12T14:13:15;102275.48;;;10.93;38.13
63927;BME280;50103;47.960;21.712;2023-02-12T14:15:49;102273.14;;;10.44;38.64
63927;BME280;50103;47.960;21.712;2023-02-12T14:18:28;102271.06;;;10.11;39.32
63927;BME280;50103;47.960;21.712;2023-02-12T14:23:45;102276.57;;;9.65;40.45
63927;BME280;50103;47.960;21.712;2023-02-12T14:26:20;102280.71;;;9.50;40.79
63927;BME280;50103;47.960;21.712;2023-02-12T14:34:38;102293.60;;;9.29;41.73
63927;BME280;50103;47.960;21.712;2023-02-12T14:37:15;102288.61;;;9.12;41.95
63927;BME280;50103;47.960;21.712;2023-02-12T14:39:42;102289.10;;;9.04;42.08
63927;BME280;50103;47.960;21.712;2023-02-12T14:50:22;102292.52;;;8.42;43.19
63927;BME280;50103;47.960;21.712;2023-02-12T14:52:53;102297.42;;;8.33;43.13
63927;BME280;50103;47.960;21.712;2023-02-12T14:55:30;102303.77;;;8.23;43.61
63927;BME280;50103;47.960;21.712;2023-02-12T14:58:04;102308.45;;;8.15;43.52
63927;BME280;50103;47.960;21.712;2023-02-12T15:00:39;102312.79;;;8.07;43.48
63927;BME280;50103;47.960;21.712;2023-02-12T15:03:19;102322.69;;;7.91;43.51
63927;BME280;50103;47.960;21.712;2023-02-12T15:06:06;102328.33;;;7.70;43.81
63927;BME280;50103;47.960;21.712;2023-02-12T15:14:05;102326.27;;;7.13;44.50
63927;BME280;50103;47.960;21.712;2023-02-12T15:16:40;102327.05;;;6.99;44.63
63927;BME280;50103;47.960;21.712;2023-02-12T15:22:29;102332.03;;;6.60;45.39
63927;BME280;50103;47.960;21.712;2023-02-12T15:25:25;102336.60;;;6.49;46.31
63927;BME280;50103;47.960;21.712;2023-02-12T15:28:00;102341.12;;;6.45;46.29
63927;BME280;50103;47.960;21.712;2023-02-12T15:30:31;102343.76;;;6.38;46.49
63927;BME280;50103;47.960;21.712;2023-02-12T15:33:01;102351.94;;;6.28;46.54
63927;BME280;50103;47.960;21.712;2023-02-12T15:35:30;102362.92;;;6.18;46.94
63927;BME280;50103;47.960;21.712;2023-02-12T15:37:58;102368.41;;;6.10;47.07
63927;BME280;50103;47.960;21.712;2023-02-12T15:40:29;102374.50;;;6.05;47.43
63927;BME280;50103;47.960;21.712;2023-02-12T15:43:02;102378.77;;;5.96;47.62
63927;BME280;50103;47.960;21.712;2023-02-12T15:45:34;102384.77;;;5.88;47.76
63927;BME280;50103;47.960;21.712;2023-02-12T15:48:11;102382.37;;;5.78;48.10
63927;BME280;50103;47.960;21.712;2023-02-12T15:50:46;102379.77;;;5.69;48.34
63927;BME280;50103;47.960;21.712;2023-02-12T15:53:14;102383.66;;;5.61;48.92
63927;BME280;50103;47.960;21.712;2023-02-12T15:55:43;102390.02;;;5.52;49.27
63927;BME280;50103;47.960;21.712;2023-02-12T15:58:29;102394.11;;;5.41;49.74
63927;BME280;50103;47.960;21.712;2023-02-12T16:01:03;102401.86;;;5.32;50.00
63927;BME280;50103;47.960;21.712;2023-02-12T16:03:32;102405.08;;;5.30;50.26
63927;BME280;50103;47.960;21.712;2023-02-12T16:06:08;102411.33;;;5.24;50.55
63927;BME280;50103;47.960;21.712;2023-02-12T16:08:57;102411.60;;;5.21;50.74
63927;BME280;50103;47.960;21.712;2023-02-12T16:11:25;102403.14;;;5.14;51.08
63927;BME280;50103;47.960;21.712;2023-02-12T16:14:35;102400.28;;;5.08;51.13
63927;BME280;50103;47.960;21.712;2023-02-12T16:17:32;102399.48;;;5.04;51.47
63927;BME280;50103;47.960;21.712;2023-02-12T16:20:04;102402.64;;;4.96;51.62
63927;BME280;50103;47.960;21.712;2023-02-12T16:22:40;102409.30;;;4.87;51.84
63927;BME280;50103;47.960;21.712;2023-02-12T16:25:21;102418.90;;;4.81;52.24
63927;BME280;50103;47.960;21.712;2023-02-12T16:28:19;102422.52;;;4.75;52.34
63927;BME280;50103;47.960;21.712;2023-02-12T16:30:50;102429.20;;;4.66;52.68
63927;BME280;50103;47.960;21.712;2023-02-12T16:33:40;102429.82;;;4.60;52.88
63927;BME280;50103;47.960;21.712;2023-02-12T16:38:52;102426.80;;;4.53;53.51
63927;BME280;50103;47.960;21.712;2023-02-12T16:41:24;102428.23;;;4.52;53.51
63927;BME280;50103;47.960;21.712;2023-02-12T16:46:47;102433.89;;;4.39;53.93
63927;BME280;50103;47.960;21.712;2023-02-12T16:49:16;102434.89;;;4.32;54.01
63927;BME280;50103;47.960;21.712;2023-02-12T16:51:42;102439.55;;;4.26;54.24
63927;BME280;50103;47.960;21.712;2023-02-12T16:54:30;102441.77;;;4.19;54.52
63927;BME280;50103;47.960;21.712;2023-02-12T16:56:58;102446.84;;;4.09;54.90
63927;BME280;50103;47.960;21.712;2023-02-12T16:59:24;102449.88;;;4.06;55.01
63927;BME280;50103;47.960;21.712;2023-02-12T17:02:12;102449.99;;;3.98;55.07
63927;BME280;50103;47.960;21.712;2023-02-12T17:04:54;102451.38;;;3.87;55.45
63927;BME280;50103;47.960;21.712;2023-02-12T17:07:22;102450.14;;;3.77;55.82
63927;BME280;50103;47.960;21.712;2023-02-12T17:09:48;102446.91;;;3.70;56.23
63927;BME280;50103;47.960;21.712;2023-02-12T17:12:14;102442.52;;;3.60;56.87
63927;BME280;50103;47.960;21.712;2023-02-12T17:14:40;102445.79;;;3.50;56.78
63927;BME280;50103;47.960;21.712;2023-02-12T17:17:06;102449.02;;;3.43;56.69
63927;BME280;50103;47.960;21.712;2023-02-12T17:19:32;102448.39;;;3.39;57.00
63927;BME280;50103;47.960;21.712;2023-02-12T17:21:58;102445.25;;;3.38;57.39
63927;BME280;50103;47.960;21.712;2023-02-12T17:24:26;102448.02;;;3.41;57.56
63927;BME280;50103;47.960;21.712;2023-02-12T17:26:53;102444.16;;;3.40;57.43
63927;BME280;50103;47.960;21.712;2023-02-12T17:29:21;102447.04;;;3.35;57.65
63927;BME280;50103;47.960;21.712;2023-02-12T17:31:47;102445.53;;;3.29;57.42
63927;BME280;50103;47.960;21.712;2023-02-12T17:34:15;102453.14;;;3.23;57.80
63927;BME280;50103;47.960;21.712;2023-02-12T17:36:40;102458.30;;;3.16;58.21
63927;BME280;50103;47.960;21.712;2023-02-12T17:39:07;102458.60;;;3.05;58.30
63927;BME280;50103;47.960;21.712;2023-02-12T17:41:34;102454.67;;;2.97;58.66
63927;BME280;50103;47.960;21.712;2023-02-12T17:43:59;102457.70;;;2.92;59.39
63927;BME280;50103;47.960;21.712;2023-02-12T17:46:27;102464.94;;;2.87;59.77
63927;BME280;50103;47.960;21.712;2023-02-12T17:48:53;102467.59;;;2.84;59.59
63927;BME280;50103;47.960;21.712;2023-02-12T17:51:19;102466.02;;;2.84;59.93
63927;BME280;50103;47.960;21.712;2023-02-12T17:53:45;102464.11;;;2.81;59.85
63927;BME280;50103;47.960;21.712;2023-02-12T17:56:17;102460.15;;;2.75;60.07
63927;BME280;50103;47.960;21.712;2023-02-12T17:58:45;102457.25;;;2.70;60.10
63927;BME280;50103;47.960;21.712;2023-02-12T18:01:14;102462.05;;;2.62;60.46
63927;BME280;50103;47.960;21.712;2023-02-12T18:03:40;102460.20;;;2.54;60.95
63927;BME280;50103;47.960;21.712;2023-02-12T18:06:07;102465.66;;;2.49;61.10
63927;BME280;50103;47.960;21.712;2023-02-12T18:08:33;102463.41;;;2.45;61.34
63927;BME280;50103;47.960;21.712;2023-02-12T18:11:04;102466.08;;;2.42;61.70
63927;BME280;50103;47.960;21.712;2023-02-12T18:13:30;102469.08;;;2.39;61.76
63927;BME280;50103;47.960;21.712;2023-02-12T18:15:56;102471.55;;;2.35;61.97
63927;BME280;50103;47.960;21.712;2023-02-12T18:18:21;102472.80;;;2.31;62.66
63927;BME280;50103;47.960;21.712;2023-02-12T18:20:47;102478.95;;;2.27;62.45
63927;BME280;50103;47.960;21.712;2023-02-12T18:23:13;102477.77;;;2.24;62.40
63927;BME280;50103;47.960;21.712;2023-02-12T18:25:42;102476.41;;;2.18;62.47
63927;BME280;50103;47.960;21.712;2023-02-12T18:28:09;102473.31;;;2.11;63.00
63927;BME280;50103;47.960;21.712;2023-02-12T18:30:41;102476.32;;;2.06;63.36
63927;BME280;50103;47.960;21.712;2023-02-12T18:33:09;102471.65;;;1.98;63.88
63927;BME280;50103;47.960;21.712;2023-02-12T18:35:35;102476.77;;;1.94;63.84
63927;BME280;50103;47.960;21.712;2023-02-12T18:38:06;102474.86;;;1.91;64.02
63927;BME280;50103;47.960;21.712;2023-02-12T18:40:31;102478.19;;;1.89;64.03
63927;BME280;50103;47.960;21.712;2023-02-12T18:42:57;102476.98;;;1.84;64.21
63927;BME280;50103;47.960;21.712;2023-02-12T18:45:23;102471.63;;;1.77;64.52
63927;BME280;50103;47.960;21.712;2023-02-12T18:47:49;102469.39;;;1.71;64.88
63927;BME280;50103;47.960;21.712;2023-02-12T18:50:15;102465.92;;;1.65;65.44
63927;BME280;50103;47.960;21.712;2023-02-12T18:52:41;102464.56;;;1.60;65.56
63927;BME280;50103;47.960;21.712;2023-02-12T18:55:07;102462.50;;;1.54;65.77
63927;BME280;50103;47.960;21.712;2023-02-12T18:57:33;102461.29;;;1.51;65.75
63927;BME280;50103;47.960;21.712;2023-02-12T18:59:59;102464.80;;;1.48;65.88
63927;BME280;50103;47.960;21.712;2023-02-12T19:02:24;102464.48;;;1.44;65.89
63927;BME280;50103;47.960;21.712;2023-02-12T19:04:50;102468.34;;;1.40;66.10
63927;BME280;50103;47.960;21.712;2023-02-12T19:07:16;102473.23;;;1.36;66.56
63927;BME280;50103;47.960;21.712;2023-02-12T19:09:42;102475.34;;;1.32;66.80
63927;BME280;50103;47.960;21.712;2023-02-12T19:12:07;102479.56;;;1.29;67.07
63927;BME280;50103;47.960;21.712;2023-02-12T19:14:34;102481.30;;;1.28;67.11
63927;BME280;50103;47.960;21.712;2023-02-12T19:16:59;102480.79;;;1.28;67.46
63927;BME280;50103;47.960;21.712;2023-02-12T19:19:25;102487.59;;;1.28;67.47
63927;BME280;50103;47.960;21.712;2023-02-12T19:21:54;102488.81;;;1.28;67.67
63927;BME280;50103;47.960;21.712;2023-02-12T19:24:20;102493.52;;;1.29;68.05
63927;BME280;50103;47.960;21.712;2023-02-12T19:26:51;102494.05;;;1.27;67.80
63927;BME280;50103;47.960;21.712;2023-02-12T19:29:17;102494.92;;;1.27;68.03
63927;BME280;50103;47.960;21.712;2023-02-12T19:31:44;102495.45;;;1.26;68.16
63927;BME280;50103;47.960;21.712;2023-02-12T19:34:15;102501.04;;;1.25;68.42
63927;BME280;50103;47.960;21.712;2023-02-12T19:36:42;102504.01;;;1.23;68.51
63927;BME280;50103;47.960;21.712;2023-02-12T19:39:09;102504.00;;;1.21;68.66
63927;BME280;50103;47.960;21.712;2023-02-12T19:41:37;102505.92;;;1.18;68.83
63927;BME280;50103;47.960;21.712;2023-02-12T19:44:07;102502.96;;;1.16;69.03
63927;BME280;50103;47.960;21.712;2023-02-12T19:46:34;102504.89;;;1.16;69.05
63927;BME280;50103;47.960;21.712;2023-02-12T19:49:01;102504.23;;;1.13;69.14
63927;BME280;50103;47.960;21.712;2023-02-12T19:51:28;102504.56;;;1.13;69.25
63927;BME280;50103;47.960;21.712;2023-02-12T19:53:58;102512.95;;;1.11;69.30
63927;BME280;50103;47.960;21.712;2023-02-12T19:56:24;102520.80;;;1.08;69.90
63927;BME280;50103;47.960;21.712;2023-02-12T19:58:50;102523.59;;;1.04;70.08
